Airfield :
LOGIN :

Register | Disclaimer

   EN    FR    IT 

 










Legend :    VFR   Marginal VFR   IFR   Intensive IFR   Very Intensive IFR
Visi :
Ceiling :
>= 8 km
>= 3000ft
5 to 8 km
1000 to 3000 ft
1500m to 5 km
500 to 1000 ft
800 to 1500m
200 to 500 ft
< 800m
< 200 ft
Symbols :   Thunderstorms  Fog  Heavy snow  Heavy precipitations  Wind > 20 kt
SIGMETs :     Misc.  Thunderstorms  Icing  Turbulence  Mountain Waves  Volcanic Ashes







- Airport Elevation : 388 ft
- IATA code : QYR
- Download approach charts


LFQB - Troyes Barberey

CURRENT METAR :
  • 181500Z AUTO 08007KT 020V140 CAVOK 23/10 Q1018

EXPIRED METARs :
  • 181430Z AUTO 07008KT 040V120 CAVOK 23/09 Q1018
  • 181400Z AUTO 08009KT 030V130 CAVOK 23/09 Q1018
  • 181330Z AUTO 10009KT 040V140 CAVOK 23/10 Q1018
  • 181300Z AUTO 07010KT 040V110 CAVOK 23/10 Q1018
  • 181230Z AUTO 07010KT 040V110 CAVOK 23/11 Q1018

TAF N/A
No reported NOTAMs for that airfield.



MET'MAP, your aeronautical weather chart ! - Copyright ORBIFLY December 2007 - Disclaimer

ORBIFLY MET'MAP TEAM :

Programming & Development : Alexandra Zaïnal
Concept & Development : Baudouin d'Aumeries
Co-Development & Prog : Marc-Olivier Méhu
Technical & hardware support : Manuel Goepfert

Contact : metmap@orbifly.com




SOURCES & CREDITS :

   NOAA